Time;durP1;ratioP1;P1;durP2;ratioP2;P2;SDS_P1;SDS_P2;PMS_P1;PMS_P2;Temp;Humidity;BMP_temperature;BMP_pressure;BME280_temperature;BME280_humidity;BME280_pressure;Samples;Min_cycle;Max_cycle;Signal;HPM_P1;HPM_P2
2023/08/07 00:00:16;;;;;;;5.97;2.90;;;14.60;99.90;;;;;;5041731;28;20432;-82
2023/08/07 00:02:43;;;;;;;10.75;2.65;;;14.70;99.90;;;;;;5028078;28;20512;-80
2023/08/07 00:05:10;;;;;;;4.60;2.78;;;14.60;99.90;;;;;;5029336;28;20050;-83
2023/08/07 00:07:41;;;;;;;8.45;2.70;;;14.60;99.90;;;;;;5029557;28;20046;-81
2023/08/07 00:10:09;;;;;;;6.15;2.13;;;14.50;99.90;;;;;;5018883;28;20029;-79
2023/08/07 00:12:39;;;;;;;4.63;2.33;;;14.40;99.90;;;;;;5028545;28;20170;-81
2023/08/07 00:15:07;;;;;;;8.18;2.53;;;14.40;99.90;;;;;;5029049;28;20045;-80
2023/08/07 00:17:34;;;;;;;5.90;2.63;;;14.30;99.90;;;;;;5028001;28;20049;-81
2023/08/07 00:20:02;;;;;;;8.23;2.75;;;14.30;99.90;;;;;;5028338;28;20141;-79
2023/08/07 00:22:30;;;;;;;7.35;2.55;;;14.40;99.90;;;;;;5027336;28;20133;-80
2023/08/07 00:24:59;;;;;;;5.72;2.65;;;14.50;99.90;;;;;;5027575;28;20124;-81
2023/08/07 00:27:28;;;;;;;5.55;2.45;;;14.50;99.90;;;;;;5032257;28;20083;-81
2023/08/07 00:29:55;;;;;;;5.03;2.30;;;14.70;99.90;;;;;;5009957;28;20052;-81
2023/08/07 00:32:22;;;;;;;4.57;2.22;;;14.70;99.90;;;;;;5010009;28;20037;-81
2023/08/07 00:34:49;;;;;;;6.43;2.10;;;14.80;99.90;;;;;;5008889;28;20042;-79
2023/08/07 00:37:17;;;;;;;11.35;2.58;;;14.80;99.90;;;;;;5028168;28;20038;-79
2023/08/07 00:39:44;;;;;;;6.28;2.67;;;14.90;99.90;;;;;;5028712;28;20056;-80
2023/08/07 00:42:13;;;;;;;6.32;2.22;;;14.80;99.90;;;;;;5027052;28;20136;-81
2023/08/07 00:44:40;;;;;;;6.60;2.00;;;14.90;99.90;;;;;;5027054;28;20115;-82
2023/08/07 00:47:08;;;;;;;3.97;2.20;;;15.00;99.90;;;;;;5025578;28;20052;-81
2023/08/07 00:49:36;;;;;;;8.48;2.17;;;15.00;99.90;;;;;;5028135;28;20068;-81
2023/08/07 00:52:04;;;;;;;3.10;2.33;;;14.90;99.90;;;;;;5028416;28;20304;-80
2023/08/07 00:54:35;;;;;;;3.40;2.13;;;15.00;99.90;;;;;;5027987;28;20041;-80
2023/08/07 00:57:12;;;;;;;6.53;2.45;;;14.90;99.90;;;;;;5012790;28;20049;-81
2023/08/07 00:59:41;;;;;;;6.72;2.40;;;14.70;99.90;;;;;;5013455;28;20072;-80
2023/08/07 01:02:13;;;;;;;5.95;2.60;;;14.60;99.90;;;;;;5013559;28;20042;-81
2023/08/07 01:04:41;;;;;;;8.35;2.63;;;14.70;99.90;;;;;;5030312;28;20104;-81
2023/08/07 01:07:09;;;;;;;12.13;2.70;;;14.60;99.90;;;;;;5013836;28;20069;-81
2023/08/07 01:09:37;;;;;;;6.18;2.55;;;14.60;99.90;;;;;;5032391;28;20037;-82
2023/08/07 01:12:14;;;;;;;4.85;2.30;;;14.70;99.90;;;;;;5031448;28;20065;-81
2023/08/07 01:14:52;;;;;;;5.72;2.28;;;14.70;99.90;;;;;;5012867;28;20085;-80
2023/08/07 01:17:23;;;;;;;6.10;2.67;;;14.70;99.90;;;;;;5014001;28;20050;-81
2023/08/07 01:19:52;;;;;;;5.70;2.97;;;14.70;99.90;;;;;;5030848;28;20060;-80
2023/08/07 01:22:21;;;;;;;8.93;2.50;;;14.80;99.90;;;;;;5014250;28;20080;-80
2023/08/07 01:24:50;;;;;;;4.00;2.00;;;14.70;99.90;;;;;;5013486;28;20050;-80
2023/08/07 01:27:29;;;;;;;7.28;2.45;;;14.70;99.90;;;;;;5027923;28;20069;-79
2023/08/07 01:30:05;;;;;;;16.95;8.32;;;14.70;99.90;;;;;;5031129;28;20579;-84
2023/08/07 01:32:41;;;;;;;9.60;3.03;;;14.70;99.90;;;;;;5029628;28;20515;-81
2023/08/07 01:35:12;;;;;;;5.40;1.80;;;14.60;99.90;;;;;;5013784;28;20057;-80
2023/08/07 01:37:43;;;;;;;14.52;7.93;;;14.40;99.90;;;;;;5032349;28;20052;-79
2023/08/07 01:40:12;;;;;;;7.97;2.13;;;14.40;99.90;;;;;;5028456;28;20041;-82
2023/08/07 01:42:40;;;;;;;7.57;2.08;;;14.30;99.90;;;;;;5032039;28;20080;-79
2023/08/07 01:45:09;;;;;;;3.17;1.95;;;14.30;99.90;;;;;;5031305;28;20045;-82
2023/08/07 01:47:37;;;;;;;5.30;1.65;;;14.20;99.90;;;;;;5018053;28;20151;-82
2023/08/07 01:50:05;;;;;;;7.70;1.98;;;14.10;99.90;;;;;;5028505;28;20500;-81
2023/08/07 01:52:33;;;;;;;3.55;1.75;;;14.00;99.90;;;;;;5012744;28;20049;-81
2023/08/07 01:55:02;;;;;;;4.72;2.00;;;14.00;99.90;;;;;;5014705;28;20049;-80
2023/08/07 01:57:30;;;;;;;3.53;1.98;;;13.90;99.90;;;;;;5031385;28;20053;-80
2023/08/07 01:59:59;;;;;;;2.47;1.60;;;13.90;99.90;;;;;;5029743;28;20052;-79
2023/08/07 02:02:27;;;;;;;3.78;1.75;;;14.00;99.90;;;;;;5001942;28;20045;-81
2023/08/07 02:04:55;;;;;;;6.78;1.90;;;14.00;99.90;;;;;;5030805;28;20045;-82
2023/08/07 02:07:23;;;;;;;5.20;2.28;;;14.10;99.90;;;;;;5014476;28;20052;-82
2023/08/07 02:09:50;;;;;;;7.13;2.83;;;14.10;99.90;;;;;;5033842;28;20532;-80
2023/08/07 02:12:19;;;;;;;5.30;2.10;;;14.00;99.90;;;;;;5029053;28;20049;-83
2023/08/07 02:14:46;;;;;;;7.40;2.25;;;14.20;99.90;;;;;;5035797;28;20049;-81
2023/08/07 02:17:14;;;;;;;6.97;1.83;;;14.20;99.90;;;;;;5019148;28;20064;-80
2023/08/07 02:19:42;;;;;;;4.82;2.20;;;14.30;99.90;;;;;;5012246;28;20049;-80
2023/08/07 02:22:10;;;;;;;8.57;2.17;;;14.30;99.90;;;;;;5009699;28;20907;-80
2023/08/07 02:24:38;;;;;;;6.50;2.22;;;14.40;99.90;;;;;;5010265;28;20073;-81
2023/08/07 02:27:08;;;;;;;4.75;2.42;;;14.40;99.90;;;;;;5009490;28;20457;-80
2023/08/07 02:29:38;;;;;;;5.05;2.92;;;14.40;99.90;;;;;;5009192;28;20042;-81
2023/08/07 02:32:08;;;;;;;6.13;2.70;;;14.40;99.90;;;;;;5009664;28;20042;-82
2023/08/07 02:34:35;;;;;;;6.45;2.90;;;14.40;99.90;;;;;;5024748;28;20079;-82
2023/08/07 02:37:03;;;;;;;5.50;2.47;;;14.50;99.90;;;;;;5010630;28;20060;-81
2023/08/07 02:39:31;;;;;;;4.65;2.60;;;14.40;99.90;;;;;;5011994;28;20077;-80
2023/08/07 02:41:58;;;;;;;6.20;2.70;;;14.30;99.90;;;;;;5011919;28;20621;-79
2023/08/07 02:44:27;;;;;;;6.47;2.35;;;14.30;99.90;;;;;;5009766;28;20046;-82
2023/08/07 02:46:58;;;;;;;7.25;2.67;;;14.40;99.90;;;;;;5007755;28;20042;-82
2023/08/07 02:49:26;;;;;;;6.40;2.65;;;14.30;99.90;;;;;;5022534;28;20052;-80
2023/08/07 02:51:54;;;;;;;6.13;2.53;;;14.20;99.90;;;;;;5025518;28;20588;-82
2023/08/07 02:57:02;;;;;;;7.22;2.20;;;14.30;99.90;;;;;;5222051;23;20107;-73
2023/08/07 02:59:30;;;;;;;11.35;2.00;;;14.30;99.90;;;;;;5021642;28;20049;-75
2023/08/07 03:01:59;;;;;;;5.10;2.33;;;14.20;99.90;;;;;;5037332;28;20427;-77
2023/08/07 03:04:26;;;;;;;6.82;2.53;;;14.20;99.90;;;;;;5042851;28;20045;-74
2023/08/07 03:06:54;;;;;;;6.68;2.08;;;14.10;99.90;;;;;;5015612;28;20064;-78
2023/08/07 03:09:21;;;;;;;8.07;2.00;;;14.10;99.90;;;;;;5017415;22;20452;-87
2023/08/07 03:11:49;;;;;;;5.53;2.53;;;14.10;99.90;;;;;;4991705;28;20052;-83
2023/08/07 03:14:16;;;;;;;6.15;2.22;;;14.10;99.90;;;;;;4981656;28;20125;-87
2023/08/07 03:16:44;;;;;;;7.78;2.20;;;14.10;99.90;;;;;;4972821;28;20073;-84
2023/08/07 03:19:13;;;;;;;5.55;2.20;;;14.10;99.90;;;;;;4991507;28;20050;-87
2023/08/07 03:21:41;;;;;;;6.70;2.38;;;14.00;99.90;;;;;;5009479;28;20121;-87
2023/08/07 03:24:09;;;;;;;8.02;2.45;;;13.90;99.90;;;;;;5008719;28;20054;-86
2023/08/07 03:26:36;;;;;;;7.57;2.60;;;13.90;99.90;;;;;;4987656;28;20058;-84
2023/08/07 03:29:03;;;;;;;10.13;2.50;;;13.90;99.90;;;;;;4981544;28;20081;-86
2023/08/07 03:31:31;;;;;;;6.00;2.10;;;13.80;99.90;;;;;;4973235;28;20071;-85
2023/08/07 03:33:59;;;;;;;6.93;2.63;;;13.70;99.90;;;;;;4993065;28;20043;-86
2023/08/07 03:36:29;;;;;;;5.50;2.83;;;13.90;99.90;;;;;;4994191;28;20049;-86
2023/08/07 03:38:57;;;;;;;4.97;2.15;;;13.90;99.90;;;;;;4990957;28;20237;-88
2023/08/07 03:41:24;;;;;;;8.75;2.45;;;13.90;99.90;;;;;;5009434;28;20050;-86
2023/08/07 03:43:52;;;;;;;4.43;2.95;;;14.00;99.90;;;;;;4982752;28;20045;-87
2023/08/07 03:46:19;;;;;;;11.95;5.95;;;13.90;99.90;;;;;;4971506;28;20540;-86
2023/08/07 03:48:47;;;;;;;7.75;2.55;;;13.90;99.90;;;;;;4989208;28;20053;-86
2023/08/07 03:51:17;;;;;;;5.95;2.53;;;14.00;99.90;;;;;;5006995;28;20097;-86
2023/08/07 03:53:52;;;;;;;6.22;2.63;;;14.00;99.90;;;;;;4992116;28;20056;-87
2023/08/07 03:56:21;;;;;;;6.78;2.67;;;14.10;99.90;;;;;;4980744;28;20114;-86
2023/08/07 03:58:49;;;;;;;7.72;3.10;;;14.00;99.90;;;;;;4975009;28;20046;-86
2023/08/07 04:01:19;;;;;;;8.50;3.53;;;14.00;99.90;;;;;;4986728;28;20051;-84
2023/08/07 04:03:48;;;;;;;7.65;4.32;;;14.00;99.90;;;;;;4994434;28;20955;-85
2023/08/07 04:06:16;;;;;;;7.50;3.28;;;13.90;99.90;;;;;;4997398;28;20045;-86
2023/08/07 04:08:45;;;;;;;6.28;3.05;;;14.00;99.90;;;;;;4995617;28;20568;-87
2023/08/07 04:11:15;;;;;;;7.38;2.63;;;14.20;99.90;;;;;;4992516;28;20042;-84
2023/08/07 04:13:42;;;;;;;6.63;2.65;;;14.70;99.90;;;;;;4989386;28;20057;-87
2023/08/07 04:16:10;;;;;;;7.07;2.85;;;15.30;99.90;;;;;;4971247;28;20060;-84
2023/08/07 04:18:37;;;;;;;5.90;2.38;;;16.00;99.90;;;;;;4988565;28;20053;-85
2023/08/07 04:21:05;;;;;;;4.93;2.00;;;16.60;99.90;;;;;;4987453;28;20486;-88
2023/08/07 04:23:33;;;;;;;3.67;1.80;;;17.30;99.90;;;;;;4984988;28;20053;-88
2023/08/07 04:26:01;;;;;;;5.72;2.30;;;18.00;99.90;;;;;;5009105;28;20050;-88
2023/08/07 04:28:30;;;;;;;6.15;2.17;;;18.50;99.90;;;;;;5007118;28;20069;-88
2023/08/07 04:30:59;;;;;;;8.82;3.53;;;19.00;99.90;;;;;;5008942;28;20045;-88
2023/08/07 04:33:26;;;;;;;4.75;2.65;;;19.60;99.90;;;;;;5020765;28;20054;-87
2023/08/07 04:35:53;;;;;;;5.75;2.80;;;20.20;99.90;;;;;;5023053;28;20054;-85
2023/08/07 04:38:24;;;;;;;8.77;2.38;;;20.60;99.90;;;;;;5014896;28;20078;-85
2023/08/07 04:40:52;;;;;;;4.28;2.55;;;21.00;99.90;;;;;;5011223;28;20524;-87
2023/08/07 04:43:20;;;;;;;6.63;3.13;;;21.10;99.90;;;;;;5010165;28;20044;-88
2023/08/07 04:45:50;;;;;;;7.32;3.15;;;20.90;99.90;;;;;;5008809;28;20481;-86
2023/08/07 04:48:17;;;;;;;7.43;2.97;;;20.00;99.90;;;;;;5012241;28;20037;-87
2023/08/07 04:50:45;;;;;;;8.10;4.40;;;19.40;99.90;;;;;;4993707;28;20400;-87
2023/08/07 04:53:12;;;;;;;8.63;4.88;;;18.90;99.90;;;;;;5012005;28;20049;-86
2023/08/07 04:55:41;;;;;;;5.55;2.40;;;18.70;99.90;;;;;;5013258;28;20057;-85
2023/08/07 04:58:09;;;;;;;5.00;2.30;;;18.50;99.90;;;;;;5009222;28;20034;-87
2023/08/07 05:00:37;;;;;;;13.82;2.75;;;18.30;99.90;;;;;;5013966;28;20044;-86
2023/08/07 05:03:05;;;;;;;5.53;3.28;;;18.30;99.90;;;;;;4993272;28;20073;-89
2023/08/07 05:05:33;;;;;;;11.60;2.90;;;18.20;99.90;;;;;;5000679;28;20133;-89
2023/08/07 05:08:01;;;;;;;5.82;2.90;;;18.20;99.90;;;;;;5002302;28;20047;-88
2023/08/07 05:10:29;;;;;;;5.45;2.20;;;18.30;99.90;;;;;;4993497;28;20042;-90
2023/08/07 05:12:56;;;;;;;4.55;1.80;;;18.50;99.90;;;;;;5007857;28;20113;-87
2023/08/07 05:15:24;;;;;;;5.93;1.70;;;18.60;99.90;;;;;;5008031;28;20042;-87
2023/08/07 05:17:54;;;;;;;6.40;2.20;;;18.90;99.90;;;;;;5007596;28;20046;-86
2023/08/07 05:20:24;;;;;;;14.57;9.55;;;19.00;99.90;;;;;;5009984;28;20125;-87
2023/08/07 05:22:51;;;;;;;10.20;4.97;;;19.20;99.90;;;;;;5009298;28;20050;-87
2023/08/07 05:25:20;;;;;;;8.07;4.55;;;19.30;99.90;;;;;;5007145;28;20038;-87
2023/08/07 05:27:48;;;;;;;4.25;1.48;;;19.80;99.90;;;;;;5009990;28;20070;-88
2023/08/07 05:30:15;;;;;;;6.15;1.75;;;19.80;99.90;;;;;;5008192;28;20485;-87
2023/08/07 05:32:43;;;;;;;6.32;2.15;;;19.90;99.90;;;;;;5009702;28;20042;-83
2023/08/07 05:35:11;;;;;;;4.25;2.10;;;20.10;99.90;;;;;;5012749;28;20165;-85
2023/08/07 05:37:39;;;;;;;10.93;2.15;;;20.50;99.90;;;;;;5014924;28;20536;-85
2023/08/07 05:40:08;;;;;;;5.60;1.83;;;20.70;99.90;;;;;;5012563;28;20046;-84
2023/08/07 05:42:35;;;;;;;8.70;4.82;;;20.50;99.90;;;;;;5015145;28;20042;-85
2023/08/07 05:45:03;;;;;;;9.05;3.17;;;19.60;99.90;;;;;;5034945;28;20033;-84
2023/08/07 05:47:34;;;;;;;5.80;3.03;;;19.30;99.90;;;;;;5036637;28;20029;-86
2023/08/07 05:50:02;;;;;;;6.43;3.35;;;19.40;99.90;;;;;;5037321;28;20278;-88
2023/08/07 05:52:29;;;;;;;6.70;1.75;;;19.20;99.90;;;;;;5027831;28;20056;-86
2023/08/07 05:54:59;;;;;;;6.55;4.22;;;19.10;99.90;;;;;;5019682;28;20604;-86
2023/08/07 05:57:27;;;;;;;6.13;2.10;;;19.30;99.90;;;;;;5020395;28;20503;-90
2023/08/07 05:59:54;;;;;;;6.55;3.58;;;19.60;99.90;;;;;;5035753;28;20073;-86
2023/08/07 06:02:22;;;;;;;7.60;4.00;;;19.60;99.90;;;;;;5027507;28;20046;-87
2023/08/07 06:04:49;;;;;;;7.15;2.30;;;19.70;99.90;;;;;;5020945;28;20049;-89
2023/08/07 06:07:17;;;;;;;5.22;2.13;;;19.60;99.90;;;;;;5030123;28;20484;-86
2023/08/07 06:09:44;;;;;;;5.72;2.22;;;19.60;99.90;;;;;;5035673;28;20041;-85
2023/08/07 06:12:14;;;;;;;9.70;2.72;;;19.60;99.90;;;;;;5031034;28;20048;-86
2023/08/07 06:14:43;;;;;;;5.50;1.80;;;19.60;99.90;;;;;;5028083;28;20116;-89
2023/08/07 06:17:10;;;;;;;7.25;1.73;;;19.60;99.90;;;;;;5029625;28;20060;-89
2023/08/07 06:19:37;;;;;;;4.57;2.45;;;19.80;99.90;;;;;;5036577;28;20092;-86
2023/08/07 06:22:05;;;;;;;9.75;2.50;;;20.10;99.90;;;;;;5042470;28;20049;-84
2023/08/07 06:24:33;;;;;;;4.97;3.00;;;20.50;99.90;;;;;;5040654;28;20040;-88
2023/08/07 06:27:00;;;;;;;9.85;6.90;;;20.90;99.90;;;;;;5037229;28;20050;-88
2023/08/07 06:29:30;;;;;;;8.20;4.60;;;21.20;99.90;;;;;;5040184;28;20081;-88
2023/08/07 06:31:57;;;;;;;6.95;3.20;;;21.30;99.90;;;;;;5037579;28;20050;-87
2023/08/07 06:34:25;;;;;;;6.13;2.95;;;21.40;99.90;;;;;;5042482;28;20081;-89
2023/08/07 06:36:52;;;;;;;6.32;3.00;;;21.30;99.90;;;;;;5045929;28;20057;-87
2023/08/07 06:39:20;;;;;;;9.07;3.00;;;21.20;99.90;;;;;;5046100;28;20065;-87
2023/08/07 06:41:47;;;;;;;5.93;3.10;;;21.20;99.90;;;;;;5039331;28;20064;-89
2023/08/07 06:44:19;;;;;;;8.57;2.70;;;21.20;99.90;;;;;;5026664;28;20084;-89
2023/08/07 06:46:48;;;;;;;7.40;3.47;;;21.40;99.90;;;;;;5046094;28;20042;-88
2023/08/07 06:49:15;;;;;;;5.80;2.90;;;21.50;99.90;;;;;;5039009;28;20510;-88
2023/08/07 06:51:43;;;;;;;8.30;4.10;;;21.40;99.90;;;;;;5049660;28;20034;-88
2023/08/07 06:54:12;;;;;;;5.95;3.05;;;21.40;99.90;;;;;;5037461;28;20404;-89
2023/08/07 06:56:42;;;;;;;7.20;2.70;;;21.20;99.90;;;;;;5012480;28;20394;-88
2023/08/07 06:59:09;;;;;;;5.70;2.60;;;21.00;99.90;;;;;;5032808;28;20514;-87
2023/08/07 07:01:37;;;;;;;6.47;2.40;;;21.00;99.90;;;;;;5016757;28;20037;-88
2023/08/07 07:04:06;;;;;;;6.82;2.65;;;21.20;99.90;;;;;;5036618;28;20041;-86
2023/08/07 07:06:34;;;;;;;5.32;2.30;;;21.50;99.90;;;;;;5035347;28;20054;-87
2023/08/07 07:09:02;;;;;;;6.70;3.25;;;22.00;99.90;;;;;;5018477;28;20071;-89
2023/08/07 07:11:29;;;;;;;3.67;2.20;;;22.50;99.90;;;;;;5039383;28;20064;-88
2023/08/07 07:13:57;;;;;;;9.27;4.55;;;22.90;99.90;;;;;;5038672;28;20168;-87
2023/08/07 07:16:24;;;;;;;5.05;2.65;;;23.20;99.90;;;;;;5041882;28;20045;-87
2023/08/07 07:18:52;;;;;;;5.78;2.85;;;23.30;99.90;;;;;;5041408;28;20128;-89
2023/08/07 07:21:23;;;;;;;6.40;2.75;;;23.70;99.90;;;;;;5038688;28;20045;-87
2023/08/07 07:23:50;;;;;;;6.15;3.30;;;24.10;99.90;;;;;;5040828;28;20056;-86
2023/08/07 07:26:18;;;;;;;7.53;3.08;;;24.10;99.90;;;;;;5038723;28;20516;-85
2023/08/07 07:28:45;;;;;;;4.40;2.85;;;24.20;99.90;;;;;;5036480;28;20089;-87
2023/08/07 07:31:17;;;;;;;4.55;2.20;;;24.40;99.90;;;;;;5037505;28;20076;-86
2023/08/07 07:33:44;;;;;;;4.35;2.17;;;24.00;99.90;;;;;;5035829;28;20596;-85
2023/08/07 07:36:16;;;;;;;6.97;3.92;;;23.60;99.90;;;;;;5035630;28;20876;-87
2023/08/07 07:38:46;;;;;;;4.68;1.80;;;23.40;99.90;;;;;;5036763;28;20042;-86
2023/08/07 07:41:14;;;;;;;4.75;2.60;;;23.50;99.90;;;;;;5035272;28;20042;-86
2023/08/07 07:43:41;;;;;;;5.53;3.35;;;23.80;99.90;;;;;;5034893;28;20048;-83
2023/08/07 07:46:10;;;;;;;5.47;1.90;;;23.70;99.90;;;;;;5014396;28;20397;-87
2023/08/07 07:48:38;;;;;;;3.05;1.67;;;23.50;99.90;;;;;;5035401;28;20048;-87
2023/08/07 07:51:07;;;;;;;6.70;3.90;;;23.10;99.90;;;;;;5020945;28;20041;-86
2023/08/07 07:53:35;;;;;;;4.00;2.53;;;22.90;99.90;;;;;;5041444;28;20048;-86
2023/08/07 07:56:04;;;;;;;7.55;4.10;;;22.90;99.90;;;;;;5002060;28;20061;-81
2023/08/07 07:58:32;;;;;;;5.60;3.40;;;23.10;99.90;;;;;;5029215;28;20389;-80
2023/08/07 08:01:00;;;;;;;7.65;4.55;;;23.30;99.90;;;;;;5027564;28;20057;-82
2023/08/07 08:03:27;;;;;;;7.85;4.45;;;23.40;99.90;;;;;;5028078;28;20077;-82
2023/08/07 08:05:55;;;;;;;6.88;4.20;;;23.50;99.90;;;;;;5027685;28;20076;-80
2023/08/07 08:08:26;;;;;;;4.72;3.30;;;23.60;99.90;;;;;;5029990;28;20052;-79
2023/08/07 08:10:55;;;;;;;4.57;2.45;;;23.80;99.90;;;;;;5029326;28;20107;-80
2023/08/07 08:13:25;;;;;;;6.40;3.50;;;24.10;99.90;;;;;;5032883;28;20057;-81
2023/08/07 08:15:52;;;;;;;4.63;2.92;;;24.50;99.90;;;;;;5027620;28;20038;-82
2023/08/07 08:18:20;;;;;;;4.13;2.20;;;24.80;99.90;;;;;;5028152;28;20045;-82
2023/08/07 08:20:47;;;;;;;7.90;3.97;;;25.30;99.90;;;;;;5028630;28;20141;-82
2023/08/07 08:23:15;;;;;;;8.93;5.78;;;25.40;99.90;;;;;;5028109;28;20492;-83
2023/08/07 08:25:42;;;;;;;7.10;3.67;;;25.60;99.90;;;;;;5026454;28;20645;-82
2023/08/07 08:28:09;;;;;;;6.90;3.70;;;25.90;99.90;;;;;;5027172;28;20081;-81
2023/08/07 08:30:38;;;;;;;6.28;1.90;;;26.20;99.90;;;;;;5027931;28;20038;-82
2023/08/07 08:33:06;;;;;;;3.97;2.22;;;26.30;99.90;;;;;;5026871;28;20045;-81
2023/08/07 08:35:35;;;;;;;4.38;2.10;;;26.10;99.90;;;;;;5028825;28;20123;-79
2023/08/07 08:38:03;;;;;;;4.95;2.15;;;26.00;99.90;;;;;;5030231;28;20064;-81
2023/08/07 08:40:31;;;;;;;6.28;2.13;;;26.10;99.90;;;;;;5028749;28;20085;-80
2023/08/07 08:43:00;;;;;;;7.18;2.85;;;26.00;99.90;;;;;;5011697;28;20069;-81
2023/08/07 08:45:29;;;;;;;3.47;2.10;;;26.10;99.90;;;;;;5030019;28;20049;-82
2023/08/07 08:48:03;;;;;;;4.10;1.95;;;26.10;99.90;;;;;;5029839;28;20050;-82
2023/08/07 08:50:30;;;;;;;5.43;2.45;;;26.40;99.90;;;;;;5026736;28;20125;-81
2023/08/07 08:52:58;;;;;;;4.05;2.58;;;26.70;99.90;;;;;;5032320;28;20129;-81
2023/08/07 08:55:27;;;;;;;4.18;1.67;;;26.80;99.90;;;;;;5029204;28;20815;-79
2023/08/07 08:57:55;;;;;;;4.65;3.15;;;26.70;99.90;;;;;;5032131;28;20097;-80
2023/08/07 09:00:25;;;;;;;4.25;2.10;;;26.70;99.90;;;;;;5051392;28;20047;-83
2023/08/07 09:02:53;;;;;;;3.45;1.65;;;26.50;99.90;;;;;;5050892;28;20112;-80
2023/08/07 09:05:22;;;;;;;4.47;1.63;;;26.40;99.90;;;;;;5051175;28;20059;-78
2023/08/07 09:07:55;;;;;;;4.13;1.80;;;26.60;99.90;;;;;;5035242;28;20053;-81
2023/08/07 09:10:24;;;;;;;3.88;1.88;;;26.40;99.90;;;;;;4986057;28;20517;-81
2023/08/07 09:12:58;;;;;;;4.05;1.40;;;26.40;99.90;;;;;;4986700;28;20097;-80
2023/08/07 09:15:26;;;;;;;4.53;3.10;;;26.50;99.90;;;;;;4988360;28;20054;-81
2023/08/07 09:17:55;;;;;;;6.40;4.38;;;26.80;99.90;;;;;;4992315;28;20057;-80
2023/08/07 09:20:25;;;;;;;7.65;2.83;;;26.90;99.90;;;;;;4990665;28;20050;-81
2023/08/07 09:22:53;;;;;;;3.28;1.70;;;26.50;99.90;;;;;;4991359;28;20046;-83
2023/08/07 09:25:28;;;;;;;3.08;2.00;;;26.30;99.90;;;;;;4991325;28;20049;-81
2023/08/07 09:27:57;;;;;;;5.03;2.72;;;26.10;99.90;;;;;;4997066;28;20030;-81
2023/08/07 09:30:29;;;;;;;3.42;1.60;;;25.90;99.90;;;;;;4994794;28;20066;-85
2023/08/07 09:32:58;;;;;;;6.22;4.35;;;26.10;99.90;;;;;;4992284;28;20498;-79
2023/08/07 09:35:27;;;;;;;3.08;1.80;;;26.40;99.90;;;;;;4993681;28;20520;-89
2023/08/07 09:38:05;;;;;;;4.43;1.55;;;26.50;99.90;;;;;;4993165;28;20133;-86
2023/08/07 09:40:33;;;;;;;4.57;2.88;;;26.50;99.90;;;;;;4973324;28;20514;-82
2023/08/07 09:43:03;;;;;;;6.47;3.47;;;26.60;99.90;;;;;;4992335;28;20137;-87
2023/08/07 09:45:31;;;;;;;7.63;5.28;;;26.70;99.90;;;;;;4991680;28;20042;-83
2023/08/07 09:48:00;;;;;;;6.57;4.88;;;26.90;99.90;;;;;;4988549;28;20117;-82
2023/08/07 09:50:29;;;;;;;8.07;4.95;;;27.00;99.90;;;;;;4990437;28;20539;-82
2023/08/07 09:52:57;;;;;;;5.30;2.10;;;27.20;99.90;;;;;;4989125;28;20058;-78
2023/08/07 09:55:25;;;;;;;3.35;1.73;;;27.00;99.90;;;;;;4990154;28;20050;-81
2023/08/07 09:57:53;;;;;;;1.75;1.10;;;26.70;99.90;;;;;;4991964;28;20034;-83
2023/08/07 10:00:21;;;;;;;2.63;1.17;;;26.90;99.90;;;;;;4989257;28;20052;-85
2023/08/07 10:02:49;;;;;;;2.55;0.90;;;26.60;99.90;;;;;;4990543;28;20046;-84
2023/08/07 10:05:17;;;;;;;2.20;1.08;;;25.60;99.90;;;;;;4973598;28;20042;-81
2023/08/07 10:07:46;;;;;;;3.05;1.17;;;25.60;99.90;;;;;;4990710;28;20046;-82
2023/08/07 10:10:15;;;;;;;1.80;1.08;;;25.80;99.90;;;;;;4991207;28;20058;-84
2023/08/07 10:12:45;;;;;;;1.30;0.75;;;25.70;99.90;;;;;;4974472;28;20046;-84
2023/08/07 10:15:13;;;;;;;1.65;0.90;;;25.40;99.90;;;;;;4990133;28;20374;-86
2023/08/07 10:17:43;;;;;;;2.70;0.90;;;25.60;99.90;;;;;;4989230;28;20090;-85
2023/08/07 10:20:12;;;;;;;3.55;2.13;;;25.80;99.90;;;;;;4990122;28;20080;-87
2023/08/07 10:22:40;;;;;;;9.85;7.45;;;26.40;99.90;;;;;;4992652;28;20081;-81
2023/08/07 10:25:10;;;;;;;33.58;29.92;;;26.70;99.90;;;;;;4990036;28;20044;-83
2023/08/07 10:27:41;;;;;;;6.32;3.83;;;26.90;99.90;;;;;;4994750;28;20046;-82
2023/08/07 10:30:12;;;;;;;3.67;0.95;;;26.00;99.90;;;;;;5007376;28;20061;-83
2023/08/07 10:32:40;;;;;;;1.70;0.98;;;26.20;99.90;;;;;;5005762;28;20104;-80
2023/08/07 10:35:08;;;;;;;2.03;1.17;;;26.70;99.90;;;;;;4990930;28;20121;-84
2023/08/07 10:37:44;;;;;;;1.88;1.10;;;27.00;99.90;;;;;;4970638;28;20073;-86
2023/08/07 10:40:14;;;;;;;1.52;0.90;;;27.30;99.90;;;;;;4988745;28;20089;-84
2023/08/07 10:43:18;;;;;;;4.78;1.58;;;27.20;99.90;;;;;;4992015;28;20039;-83
2023/08/07 10:45:45;;;;;;;2.65;0.68;;;27.20;99.90;;;;;;4960175;28;20061;-81
2023/08/07 10:48:18;;;;;;;1.95;1.05;;;26.80;99.90;;;;;;4990420;28;20053;-82
2023/08/07 10:50:52;;;;;;;2.78;0.73;;;26.60;99.90;;;;;;4989958;28;20122;-79
2023/08/07 10:53:22;;;;;;;1.60;1.05;;;26.60;99.90;;;;;;4992393;28;20449;-83
2023/08/07 10:55:50;;;;;;;2.25;0.80;;;26.60;99.90;;;;;;4991664;28;20054;-83
2023/08/07 10:58:25;;;;;;;1.75;0.93;;;26.60;99.90;;;;;;4988618;28;20039;-87
2023/08/07 11:01:13;;;;;;;17.15;14.65;;;26.50;99.90;;;;;;4990987;28;20077;-82
2023/08/07 11:03:43;;;;;;;5.18;1.92;;;26.70;99.90;;;;;;4989216;28;20386;-82
2023/08/07 11:06:11;;;;;;;1.75;1.02;;;26.50;99.90;;;;;;4990113;28;20053;-82
2023/08/07 11:08:41;;;;;;;1.30;0.80;;;26.60;99.90;;;;;;4987151;28;20058;-83
2023/08/07 11:11:15;;;;;;;3.90;1.20;;;26.10;99.90;;;;;;4989354;28;20049;-82
2023/08/07 11:13:42;;;;;;;5.47;2.38;;;25.60;99.90;;;;;;4991003;28;20074;-82
2023/08/07 11:16:12;;;;;;;8.45;3.28;;;25.10;99.90;;;;;;4989383;28;20050;-83
2023/08/07 11:18:44;;;;;;;1.55;0.98;;;25.30;99.90;;;;;;4991976;28;20068;-82
2023/08/07 11:21:16;;;;;;;2.03;0.95;;;25.70;99.90;;;;;;4992986;28;20043;-84
2023/08/07 11:23:44;;;;;;;1.73;1.10;;;25.00;99.90;;;;;;4991864;28;20034;-82
2023/08/07 11:26:15;;;;;;;2.40;0.95;;;24.90;99.90;;;;;;4994942;28;20042;-80
2023/08/07 11:28:43;;;;;;;1.73;0.90;;;24.30;99.90;;;;;;4995616;28;20046;-81
2023/08/07 11:31:10;;;;;;;2.15;0.98;;;24.30;99.90;;;;;;4992934;28;20469;-80
2023/08/07 11:33:38;;;;;;;1.75;1.33;;;24.30;99.90;;;;;;4973963;28;20078;-82
2023/08/07 11:36:12;;;;;;;3.17;1.50;;;24.30;99.90;;;;;;4990459;28;20038;-81
2023/08/07 11:38:42;;;;;;;2.50;1.50;;;24.20;99.90;;;;;;4991449;28;20601;-82
2023/08/07 11:41:11;;;;;;;2.45;1.38;;;24.30;99.90;;;;;;4991370;28;20081;-82
2023/08/07 11:43:41;;;;;;;3.63;1.60;;;24.60;99.90;;;;;;4990622;28;20053;-81
2023/08/07 11:46:09;;;;;;;2.25;1.10;;;24.70;99.90;;;;;;4991481;28;20064;-80
2023/08/07 11:48:38;;;;;;;2.35;1.20;;;25.00;99.90;;;;;;5004641;28;20034;-81
2023/08/07 11:51:09;;;;;;;3.95;1.50;;;25.10;99.90;;;;;;5008438;28;20057;-82
2023/08/07 11:53:38;;;;;;;1.45;1.08;;;25.10;99.90;;;;;;5000447;28;20042;-81
2023/08/07 11:56:07;;;;;;;2.17;1.30;;;25.00;99.90;;;;;;5008057;28;20046;-81
2023/08/07 11:58:45;;;;;;;6.40;1.80;;;25.20;99.90;;;;;;5002423;28;20050;-81
2023/08/07 12:01:15;;;;;;;2.25;1.25;;;25.90;99.90;;;;;;5007031;28;20121;-81
2023/08/07 12:03:51;;;;;;;2.78;2.00;;;26.40;99.90;;;;;;5005449;28;20066;-80
2023/08/07 12:06:19;;;;;;;;;;;26.40;99.90;;;;;;5001818;28;20049;-81
2023/08/07 12:08:51;;;;;;;5.20;2.38;;;26.10;99.90;;;;;;5002148;28;19922;-81
2023/08/07 12:11:19;;;;;;;2.60;1.10;;;25.90;99.90;;;;;;4996146;28;20054;-82
2023/08/07 12:13:56;;;;;;;3.05;1.20;;;25.10;99.90;;;;;;4983868;28;20449;-82
2023/08/07 12:16:24;;;;;;;2.70;1.58;;;24.30;99.90;;;;;;4992277;28;20046;-81
2023/08/07 12:18:52;;;;;;;2.22;1.10;;;23.50;99.90;;;;;;4992365;28;20046;-80
2023/08/07 12:21:23;;;;;;;1.67;0.88;;;23.00;99.90;;;;;;4991619;28;20047;-82
2023/08/07 12:23:51;;;;;;;2.55;1.35;;;22.60;99.90;;;;;;4990829;28;20089;-81
2023/08/07 12:26:19;;;;;;;2.20;1.20;;;22.60;99.90;;;;;;4991560;28;20047;-80
2023/08/07 12:28:47;;;;;;;4.53;1.85;;;22.60;99.90;;;;;;4992237;28;20050;-80
2023/08/07 12:31:17;;;;;;;3.28;1.80;;;22.60;99.90;;;;;;4992390;28;20129;-81
2023/08/07 12:33:44;;;;;;;4.60;1.60;;;22.60;99.90;;;;;;4990255;28;20043;-81
2023/08/07 12:36:13;;;;;;;2.03;1.10;;;22.70;99.90;;;;;;4991126;28;20042;-81
2023/08/07 12:38:40;;;;;;;1.70;1.00;;;22.70;99.90;;;;;;4989412;28;20042;-81
2023/08/07 12:41:08;;;;;;;2.00;1.08;;;22.60;99.90;;;;;;4990443;28;20046;-81
2023/08/07 12:43:35;;;;;;;4.15;1.13;;;22.50;99.90;;;;;;4990277;28;20060;-81
2023/08/07 12:46:03;;;;;;;2.05;0.90;;;22.50;99.90;;;;;;4992169;28;20039;-81
2023/08/07 12:48:31;;;;;;;2.42;1.25;;;22.40;99.90;;;;;;4990488;28;20050;-81
2023/08/07 12:50:59;;;;;;;3.13;0.93;;;22.40;99.90;;;;;;4992979;28;20068;-81
2023/08/07 12:53:29;;;;;;;4.43;1.52;;;22.60;99.90;;;;;;4995473;28;20050;-81
2023/08/07 12:55:57;;;;;;;4.38;1.27;;;22.60;99.90;;;;;;4996747;28;20042;-81